createdAt,value
2018-12-12T00:01:31.907Z,10.50
2018-12-12T00:04:03.365Z,8.57
2018-12-12T00:06:11.508Z,9.10
2018-12-12T00:08:17.586Z,9.73
2018-12-12T00:10:23.866Z,9.27
2018-12-12T00:12:31.099Z,10.07
2018-12-12T00:14:37.839Z,10.17
2018-12-12T00:16:44.092Z,10.10
2018-12-12T00:21:12.886Z,9.97
2018-12-12T00:23:18.957Z,9.73
2018-12-12T00:25:47.677Z,11.73
2018-12-12T00:28:16.612Z,10.87
2018-12-12T00:30:22.872Z,9.83
2018-12-12T00:32:28.963Z,10.30
2018-12-12T00:34:35.302Z,11.00
2018-12-12T00:36:42.278Z,10.77
2018-12-12T00:38:48.401Z,11.00
2018-12-12T00:40:55.752Z,10.37
2018-12-12T00:43:01.993Z,10.10
2018-12-12T00:45:08.221Z,11.70
2018-12-12T00:49:39.867Z,9.80
2018-12-12T00:51:46.189Z,10.47
2018-12-12T00:53:52.553Z,11.33
2018-12-12T00:55:58.665Z,10.87
2018-12-12T00:58:04.847Z,12.05
2018-12-12T01:00:33.783Z,11.03
2018-12-12T01:03:02.447Z,10.83
2018-12-12T01:05:08.889Z,9.50
2018-12-12T01:07:15.183Z,10.40
2018-12-12T01:11:44.433Z,10.03
2018-12-12T01:13:51.145Z,10.30
2018-12-12T01:15:57.392Z,12.00
2018-12-12T01:18:04.001Z,11.57
2018-12-12T01:20:10.348Z,10.37
2018-12-12T01:22:16.412Z,11.30
2018-12-12T01:24:45.049Z,10.77
2018-12-12T01:27:13.478Z,11.75
2018-12-12T01:29:19.649Z,11.23
2018-12-12T01:31:25.794Z,10.33
2018-12-12T01:33:31.906Z,11.88
2018-12-12T01:35:38.479Z,11.07
2018-12-12T01:37:45.007Z,11.43
2018-12-12T01:39:51.946Z,11.30
2018-12-12T01:42:20.788Z,11.00
2018-12-12T01:44:50.000Z,10.93
2018-12-12T01:46:57.193Z,11.00
2018-12-12T01:49:03.337Z,12.23
2018-12-12T01:51:10.024Z,11.90
2018-12-12T01:53:17.005Z,11.53
2018-12-12T01:55:23.347Z,11.27
2018-12-12T01:57:29.447Z,10.40
2018-12-12T01:59:35.608Z,11.10
2018-12-12T02:01:41.769Z,10.90
2018-12-12T02:03:48.118Z,10.58
2018-12-12T02:05:55.180Z,10.17
2018-12-12T02:08:01.415Z,10.80
2018-12-12T02:10:08.523Z,11.00
2018-12-12T02:12:14.720Z,11.47
2018-12-12T02:14:21.190Z,11.70
2018-12-12T02:16:27.435Z,10.77
2018-12-12T02:18:34.721Z,11.53
2018-12-12T02:20:40.937Z,10.70
2018-12-12T02:22:47.036Z,10.07
2018-12-12T02:24:53.378Z,10.60
2018-12-12T02:29:18.085Z,9.90
2018-12-12T02:31:24.560Z,10.33
2018-12-12T02:33:30.936Z,10.30
2018-12-12T02:35:37.115Z,11.27
2018-12-12T02:37:43.287Z,10.43
2018-12-12T02:39:49.429Z,10.20
2018-12-12T02:42:18.482Z,10.73
2018-12-12T02:44:46.746Z,9.50
2018-12-12T02:46:53.229Z,10.07
2018-12-12T02:48:59.431Z,9.87
2018-12-12T02:51:06.450Z,10.90
2018-12-12T02:53:13.022Z,10.53
2018-12-12T02:55:19.386Z,9.33
2018-12-12T02:57:25.552Z,10.33
2018-12-12T02:59:32.370Z,9.93
2018-12-12T03:01:38.481Z,9.67
2018-12-12T03:03:44.853Z,10.90
2018-12-12T03:05:52.049Z,10.87
2018-12-12T03:07:58.261Z,10.67
2018-12-12T03:10:04.717Z,10.10
2018-12-12T03:12:10.923Z,9.80
2018-12-12T03:14:17.155Z,9.17
2018-12-12T03:16:24.058Z,11.90
2018-12-12T03:18:30.936Z,9.67
2018-12-12T03:20:37.218Z,10.33
2018-12-12T03:22:43.621Z,10.40
2018-12-12T03:24:49.715Z,8.78
2018-12-12T03:26:55.906Z,10.35
2018-12-12T03:29:02.514Z,10.57
2018-12-12T03:31:08.624Z,9.97
2018-12-12T03:33:14.979Z,9.90
2018-12-12T03:35:21.823Z,10.80
2018-12-12T03:37:27.893Z,10.00
2018-12-12T03:39:34.935Z,9.63
2018-12-12T03:41:41.221Z,10.40
2018-12-12T03:43:47.368Z,10.27
2018-12-12T03:45:53.531Z,12.90
2018-12-12T03:47:59.665Z,9.60
2018-12-12T03:50:06.257Z,10.73
2018-12-12T03:52:13.281Z,10.75
2018-12-12T03:54:19.340Z,9.48
2018-12-12T03:56:25.666Z,10.27
2018-12-12T03:58:31.775Z,11.07
2018-12-12T04:00:37.949Z,9.73
2018-12-12T04:02:44.258Z,10.73
2018-12-12T04:05:13.465Z,10.00
2018-12-12T04:07:43.306Z,9.38
2018-12-12T04:09:49.578Z,10.47
2018-12-12T04:11:55.814Z,11.30
2018-12-12T04:14:02.506Z,10.30
2018-12-12T04:16:08.589Z,10.43
2018-12-12T04:18:14.781Z,10.15
2018-12-12T04:20:21.173Z,10.77
2018-12-12T04:22:27.319Z,11.50
2018-12-12T04:24:34.149Z,10.27
2018-12-12T04:26:41.497Z,10.35
2018-12-12T04:28:47.686Z,9.20
2018-12-12T04:30:54.752Z,9.77
2018-12-12T04:33:01.003Z,11.30
2018-12-12T04:35:07.734Z,11.10
2018-12-12T04:37:13.872Z,10.93
2018-12-12T04:39:20.338Z,10.60
2018-12-12T04:41:26.486Z,12.40
2018-12-12T04:43:33.852Z,11.30
2018-12-12T04:45:41.403Z,10.50
2018-12-12T04:47:47.516Z,11.37
2018-12-12T04:49:53.682Z,11.57
2018-12-12T04:52:00.055Z,11.83
2018-12-12T04:54:06.190Z,11.30
2018-12-12T04:56:14.270Z,11.60
2018-12-12T04:58:20.398Z,10.73
2018-12-12T05:00:26.495Z,11.10
2018-12-12T05:02:33.038Z,11.03
2018-12-12T05:04:39.996Z,12.50
2018-12-12T05:06:46.220Z,11.96
2018-12-12T05:08:52.507Z,11.93
2018-12-12T05:10:58.540Z,11.95
2018-12-12T05:13:04.644Z,11.60
2018-12-12T05:15:11.042Z,11.60
2018-12-12T05:17:17.257Z,11.97
2018-12-12T05:19:23.977Z,11.80
2018-12-12T05:21:30.362Z,13.00
2018-12-12T05:23:36.615Z,12.17
2018-12-12T05:25:42.711Z,11.90
2018-12-12T05:27:49.069Z,12.73
2018-12-12T05:29:55.289Z,10.90
2018-12-12T05:32:01.590Z,11.43
2018-12-12T05:34:07.730Z,11.97
2018-12-12T05:36:13.819Z,11.27
2018-12-12T05:38:20.121Z,11.50
2018-12-12T05:40:26.634Z,11.90
2018-12-12T05:42:34.985Z,13.73
2018-12-12T05:44:41.267Z,13.65
2018-12-12T05:46:47.385Z,13.08
2018-12-12T05:48:53.468Z,12.17
2018-12-12T05:50:59.683Z,12.53
2018-12-12T05:55:22.158Z,12.20
2018-12-12T05:57:28.816Z,13.33
2018-12-12T05:59:35.268Z,13.30
2018-12-12T06:01:41.436Z,11.60
2018-12-12T06:03:47.545Z,12.50
2018-12-12T06:06:15.985Z,11.73
2018-12-12T06:08:44.965Z,11.97
2018-12-12T06:10:51.087Z,11.87
2018-12-12T06:12:58.000Z,12.10
2018-12-12T06:15:04.424Z,12.40
2018-12-12T06:17:11.880Z,13.40
2018-12-12T06:19:18.115Z,13.40
2018-12-12T06:21:24.477Z,12.37
2018-12-12T06:23:30.689Z,11.67
2018-12-12T06:25:37.479Z,12.50
2018-12-12T06:27:43.539Z,12.13
2018-12-12T06:29:49.679Z,11.87
2018-12-12T06:31:55.863Z,12.87
2018-12-12T06:34:02.172Z,12.33
2018-12-12T06:36:08.285Z,10.83
2018-12-12T06:38:14.546Z,12.03
2018-12-12T06:40:20.771Z,13.47
2018-12-12T06:42:26.831Z,12.50
2018-12-12T06:44:33.626Z,13.45
2018-12-12T06:46:39.997Z,12.23
2018-12-12T06:48:46.205Z,11.30
2018-12-12T06:50:52.506Z,11.87
2018-12-12T06:52:59.817Z,12.97
2018-12-12T06:55:06.387Z,11.90
2018-12-12T06:57:12.731Z,11.40
2018-12-12T06:59:18.819Z,12.50
2018-12-12T07:01:47.685Z,12.60
2018-12-12T07:04:16.151Z,12.73
2018-12-12T07:06:22.560Z,13.70
2018-12-12T07:08:29.667Z,12.47
2018-12-12T07:10:35.835Z,12.43
2018-12-12T07:12:42.075Z,12.03
2018-12-12T07:14:48.275Z,12.40
2018-12-12T07:16:54.617Z,11.40
2018-12-12T07:19:01.002Z,12.50
2018-12-12T07:21:07.144Z,11.30
2018-12-12T07:23:14.346Z,11.90
2018-12-12T07:25:43.621Z,11.90
2018-12-12T07:28:12.663Z,10.97
2018-12-12T07:30:19.089Z,11.03
2018-12-12T07:34:43.237Z,12.07
2018-12-12T07:36:49.362Z,11.47
2018-12-12T07:38:55.578Z,10.60
2018-12-12T07:41:01.990Z,11.50
2018-12-12T07:43:41.026Z,11.37
2018-12-12T07:46:15.019Z,10.70
2018-12-12T07:48:23.178Z,11.80
2018-12-12T07:50:48.106Z,10.37
2018-12-12T07:53:11.206Z,11.10
2018-12-12T07:55:17.314Z,10.70
2018-12-12T07:57:23.515Z,11.20
2018-12-12T07:59:30.005Z,11.85
2018-12-12T08:01:36.510Z,11.63
2018-12-12T08:03:42.689Z,12.50
2018-12-12T08:05:48.915Z,12.80
2018-12-12T08:07:55.047Z,13.57
2018-12-12T08:10:03.215Z,11.67
2018-12-12T08:12:09.895Z,12.97
2018-12-12T08:14:16.433Z,13.20
2018-12-12T08:16:22.790Z,13.53
2018-12-12T08:18:29.043Z,14.30
2018-12-12T08:20:36.256Z,14.00
2018-12-12T08:22:42.560Z,14.80
2018-12-12T08:24:48.766Z,13.87
2018-12-12T08:26:55.026Z,12.50
2018-12-12T08:29:01.173Z,13.20
2018-12-12T08:31:07.557Z,12.60
2018-12-12T08:33:15.040Z,13.57
2018-12-12T08:35:21.250Z,12.50
2018-12-12T08:37:27.401Z,14.53
2018-12-12T08:39:33.497Z,14.47
2018-12-12T08:41:39.741Z,13.47
2018-12-12T08:43:46.297Z,12.50
2018-12-12T08:45:52.613Z,12.25
2018-12-12T08:47:58.733Z,11.70
2018-12-12T08:50:08.328Z,12.57
2018-12-12T08:54:32.268Z,11.90
2018-12-12T08:56:38.816Z,12.30
2018-12-12T08:58:45.730Z,12.00
2018-12-12T09:00:53.077Z,13.80
2018-12-12T09:02:59.124Z,13.00
2018-12-12T09:05:05.621Z,13.20
2018-12-12T09:07:11.877Z,12.00
2018-12-12T09:11:34.639Z,13.27
2018-12-12T09:13:42.160Z,12.97
2018-12-12T09:15:48.294Z,13.57
2018-12-12T09:17:55.338Z,15.07
2018-12-12T09:20:01.528Z,15.57
2018-12-12T09:22:08.942Z,14.57
2018-12-12T09:24:15.373Z,13.70
2018-12-12T09:26:21.539Z,15.77
2018-12-12T09:28:27.613Z,13.40
2018-12-12T09:30:37.372Z,13.40
2018-12-12T09:32:45.675Z,13.97
2018-12-12T09:35:15.140Z,12.23
2018-12-12T09:37:21.330Z,14.20
2018-12-12T09:39:27.438Z,14.40
2018-12-12T09:41:33.828Z,15.40
2018-12-12T09:43:40.467Z,14.90
2018-12-12T09:45:46.857Z,14.10
2018-12-12T09:47:53.207Z,14.10
2018-12-12T09:52:16.789Z,13.90
2018-12-12T09:54:25.121Z,13.60
2018-12-12T09:56:31.365Z,12.70
2018-12-12T09:58:37.505Z,13.60
2018-12-12T10:00:43.759Z,13.33
2018-12-12T10:02:50.214Z,13.93
2018-12-12T10:04:56.582Z,14.20
2018-12-12T10:07:02.934Z,14.57
2018-12-12T10:09:11.762Z,13.40
2018-12-12T10:11:18.169Z,13.77
2018-12-12T10:13:25.261Z,14.40
2018-12-12T10:15:31.434Z,12.67
2018-12-12T10:17:37.569Z,13.67
2018-12-12T10:19:43.963Z,13.47
2018-12-12T10:21:50.786Z,12.67
2018-12-12T10:23:56.993Z,13.20
2018-12-12T10:26:05.704Z,14.15
2018-12-12T10:28:12.162Z,14.40
2018-12-12T10:30:18.408Z,14.47
2018-12-12T10:32:24.676Z,15.27
2018-12-12T10:34:30.905Z,14.27
2018-12-12T10:38:54.930Z,16.40
2018-12-12T10:41:01.044Z,14.83
2018-12-12T10:43:07.856Z,14.33
2018-12-12T10:45:14.311Z,14.47
2018-12-12T10:47:20.513Z,14.60
2018-12-12T10:49:26.983Z,14.43
2018-12-12T10:51:33.107Z,15.00
2018-12-12T10:53:39.245Z,14.70
2018-12-12T10:55:45.321Z,15.33
2018-12-12T10:57:51.498Z,13.83
2018-12-12T10:59:57.662Z,12.77
2018-12-12T11:02:10.373Z,16.10
2018-12-12T11:04:18.886Z,16.10
2018-12-12T11:06:24.984Z,17.13
2018-12-12T11:08:32.454Z,14.77
2018-12-12T11:10:38.741Z,14.70
2018-12-12T11:12:44.981Z,15.27
2018-12-12T11:17:08.123Z,14.57
2018-12-12T11:19:14.440Z,13.87
2018-12-12T11:21:21.686Z,12.23
2018-12-12T11:23:28.013Z,13.65
2018-12-12T11:25:34.330Z,12.60
2018-12-12T11:27:41.115Z,11.93
2018-12-12T11:29:48.072Z,11.20
2018-12-12T11:31:54.314Z,12.37
2018-12-12T11:34:00.546Z,11.93
2018-12-12T11:36:07.150Z,10.73
2018-12-12T11:38:13.481Z,12.50
2018-12-12T11:40:19.770Z,10.73
2018-12-12T11:42:28.044Z,9.10
2018-12-12T11:44:34.224Z,10.17
2018-12-12T11:46:41.691Z,10.33
2018-12-12T11:48:48.029Z,9.80
2018-12-12T11:50:54.158Z,8.80
2018-12-12T11:53:00.342Z,9.93
2018-12-12T11:55:06.908Z,9.90
2018-12-12T11:57:13.969Z,9.90
2018-12-12T11:59:20.096Z,12.17
2018-12-12T12:01:26.420Z,10.93
2018-12-12T12:03:32.706Z,12.40
2018-12-12T12:05:39.105Z,11.60
2018-12-12T12:07:46.129Z,12.80
2018-12-12T12:09:52.389Z,13.40
2018-12-12T12:12:00.000Z,12.70
2018-12-12T12:14:08.452Z,10.63
2018-12-12T12:16:15.062Z,12.37
2018-12-12T12:18:21.241Z,11.27
2018-12-12T12:20:28.264Z,12.20
2018-12-12T12:22:34.718Z,11.57
2018-12-12T12:24:40.930Z,10.40
2018-12-12T12:26:47.304Z,10.13
2018-12-12T12:28:54.088Z,10.47
2018-12-12T12:31:00.269Z,10.40
2018-12-12T12:33:06.597Z,10.77
2018-12-12T12:35:14.323Z,11.03
2018-12-12T12:37:20.668Z,11.37
2018-12-12T12:39:28.066Z,11.80
2018-12-12T12:41:34.315Z,11.10
2018-12-12T12:43:40.502Z,9.50
2018-12-12T12:45:47.335Z,11.57
2018-12-12T12:47:53.957Z,10.87
2018-12-12T12:50:00.049Z,10.93
2018-12-12T12:52:06.684Z,11.40
2018-12-12T12:54:13.132Z,11.70
2018-12-12T12:58:37.821Z,10.77
2018-12-12T13:00:44.298Z,10.30
2018-12-12T13:02:50.550Z,10.93
2018-12-12T13:04:56.727Z,11.30
2018-12-12T13:07:02.943Z,11.80
2018-12-12T13:09:09.591Z,11.67
2018-12-12T13:11:15.756Z,12.70
2018-12-12T13:13:22.389Z,12.27
2018-12-12T13:15:29.122Z,13.40
2018-12-12T13:17:35.293Z,12.90
2018-12-12T13:19:41.506Z,11.27
2018-12-12T13:21:48.714Z,9.73
2018-12-12T13:23:55.010Z,9.23
2018-12-12T13:26:01.580Z,9.57
2018-12-12T13:28:07.699Z,10.20
2018-12-12T13:30:13.977Z,9.30
2018-12-12T13:32:20.945Z,9.20
2018-12-12T13:34:27.068Z,8.63
2018-12-12T13:36:33.290Z,10.20
2018-12-12T13:38:39.679Z,9.50
2018-12-12T13:40:45.754Z,10.03
2018-12-12T13:42:52.083Z,8.43
2018-12-12T13:44:58.526Z,9.50
2018-12-12T13:47:05.251Z,9.00
2018-12-12T13:49:12.762Z,9.10
2018-12-12T13:51:19.018Z,9.50
2018-12-12T13:53:25.647Z,10.50
2018-12-12T13:55:31.853Z,17.53
2018-12-12T13:57:39.264Z,16.03
2018-12-12T13:59:45.831Z,10.00
2018-12-12T14:01:52.186Z,9.23
2018-12-12T14:03:58.409Z,10.00
2018-12-12T14:06:05.317Z,9.63
2018-12-12T14:08:11.473Z,9.43
2018-12-12T14:10:17.678Z,9.63
2018-12-12T14:12:23.886Z,8.10
2018-12-12T14:14:30.176Z,9.87
2018-12-12T14:16:36.470Z,9.83
2018-12-12T14:18:43.483Z,10.70
2018-12-12T14:20:49.798Z,10.33
2018-12-12T14:22:55.991Z,10.80
2018-12-12T14:27:19.425Z,11.97
2018-12-12T14:29:25.783Z,11.17
2018-12-12T14:31:32.053Z,12.10
2018-12-12T14:33:38.605Z,12.10
2018-12-12T14:35:44.756Z,12.13
2018-12-12T14:40:09.373Z,10.80
2018-12-12T14:42:16.119Z,12.30
2018-12-12T14:44:22.455Z,12.10
2018-12-12T14:46:28.704Z,10.07
2018-12-12T14:48:34.877Z,11.10
2018-12-12T14:50:41.622Z,12.03
2018-12-12T14:52:47.829Z,14.63
2018-12-12T14:54:54.607Z,14.70
2018-12-12T14:59:19.399Z,12.83
2018-12-12T15:01:26.627Z,12.10
2018-12-12T15:03:33.476Z,10.83
2018-12-12T15:05:41.445Z,12.67
2018-12-12T15:07:48.041Z,12.03
2018-12-12T15:09:54.470Z,13.40
2018-12-12T15:12:01.882Z,13.30
2018-12-12T15:14:09.366Z,15.17
2018-12-12T15:16:15.852Z,14.37
2018-12-12T15:18:22.109Z,17.67
2018-12-12T15:20:28.252Z,16.97
2018-12-12T15:22:34.558Z,15.67
2018-12-12T15:24:40.851Z,15.97
2018-12-12T15:26:47.145Z,27.60
2018-12-12T15:28:54.232Z,20.00
2018-12-12T15:31:00.524Z,18.27
2018-12-12T15:33:08.625Z,19.03
2018-12-12T15:35:14.866Z,26.87
2018-12-12T15:37:21.343Z,20.23
2018-12-12T15:39:27.526Z,16.48
2018-12-12T15:41:34.338Z,14.93
2018-12-12T15:43:40.786Z,16.37
2018-12-12T15:45:47.147Z,12.70
2018-12-12T15:47:53.675Z,12.33
2018-12-12T15:50:00.715Z,15.03
2018-12-12T15:52:07.365Z,17.97
2018-12-12T15:54:13.545Z,16.97
2018-12-12T15:56:19.903Z,16.30
2018-12-12T15:58:26.243Z,15.00
2018-12-12T16:00:33.790Z,16.03
2018-12-12T16:02:40.584Z,16.53
2018-12-12T16:04:49.140Z,12.83
2018-12-12T16:06:55.536Z,12.70
2018-12-12T16:09:01.928Z,11.73
2018-12-12T16:11:10.233Z,13.20
2018-12-12T16:13:16.355Z,16.23
2018-12-12T16:15:22.683Z,14.93
2018-12-12T16:17:28.919Z,12.77
2018-12-12T16:19:35.390Z,15.53
2018-12-12T16:21:41.792Z,17.47
2018-12-12T16:23:48.119Z,14.20
2018-12-12T16:25:55.820Z,14.70
2018-12-12T16:28:02.199Z,12.73
2018-12-12T16:30:09.473Z,15.37
2018-12-12T16:32:15.873Z,16.85
2018-12-12T16:34:23.085Z,14.20
2018-12-12T16:36:29.861Z,13.00
2018-12-12T16:38:36.178Z,16.23
2018-12-12T16:46:43.359Z,13.97
2018-12-12T16:48:49.857Z,15.63
2018-12-12T16:50:56.129Z,15.40
2018-12-12T16:53:02.667Z,14.90
2018-12-12T16:55:09.350Z,16.10
2018-12-12T16:57:16.103Z,19.00
2018-12-12T16:59:23.248Z,16.67
2018-12-12T17:01:29.713Z,15.77
2018-12-12T17:03:36.813Z,14.53
2018-12-12T17:05:43.763Z,14.77
2018-12-12T17:07:49.999Z,14.50
2018-12-12T17:09:56.428Z,14.73
2018-12-12T17:12:16.770Z,13.80
2018-12-12T17:14:33.493Z,11.67
2018-12-12T17:16:40.975Z,12.30
2018-12-12T17:18:47.355Z,10.20
2018-12-12T17:20:54.348Z,10.63
2018-12-12T17:23:00.788Z,9.63
2018-12-12T17:25:07.222Z,12.00
2018-12-12T17:27:13.495Z,14.30
2018-12-12T17:29:19.726Z,11.23
2018-12-12T17:31:25.948Z,15.83
2018-12-12T17:33:32.094Z,17.97
2018-12-12T17:35:39.090Z,16.20
2018-12-12T17:37:47.630Z,12.97
2018-12-12T17:39:53.786Z,13.50
2018-12-12T17:42:00.086Z,12.63
2018-12-12T17:44:07.411Z,13.00
2018-12-12T17:46:14.572Z,13.60
2018-12-12T17:48:20.707Z,13.20
2018-12-12T17:50:26.968Z,12.13
2018-12-12T17:52:33.910Z,13.10
2018-12-12T17:54:42.197Z,12.98
2018-12-12T17:56:49.874Z,14.47
2018-12-12T17:58:56.085Z,12.90
2018-12-12T18:01:02.539Z,13.80
2018-12-12T18:03:11.293Z,13.30
2018-12-12T18:05:35.970Z,12.70
2018-12-12T18:07:44.148Z,12.97
2018-12-12T18:09:52.866Z,13.33
2018-12-12T18:12:02.047Z,12.07
2018-12-12T18:14:09.440Z,12.20
2018-12-12T18:16:19.150Z,11.73
2018-12-12T18:18:27.398Z,11.63
2018-12-12T18:20:34.909Z,11.90
2018-12-12T18:22:43.274Z,11.90
2018-12-12T18:24:51.659Z,11.87
2018-12-12T18:26:57.838Z,12.47
2018-12-12T18:29:04.809Z,12.93
2018-12-12T18:31:17.922Z,10.83
2018-12-12T18:33:29.647Z,10.33
2018-12-12T18:37:57.709Z,13.10
2018-12-12T18:40:04.243Z,12.97
2018-12-12T18:42:12.459Z,15.63
2018-12-12T18:44:32.643Z,13.40
2018-12-12T18:46:38.843Z,13.33
2018-12-12T18:48:45.151Z,13.53
2018-12-12T18:50:53.426Z,12.27
2018-12-12T18:53:09.504Z,11.97
2018-12-12T18:55:23.539Z,9.20
2018-12-12T18:57:30.707Z,14.00
2018-12-12T18:59:37.459Z,13.80
2018-12-12T19:01:43.880Z,12.90
2018-12-12T19:03:50.357Z,13.23
2018-12-12T19:05:56.691Z,13.30
2018-12-12T19:08:02.967Z,14.27
2018-12-12T19:10:17.612Z,13.40
2018-12-12T19:12:31.337Z,13.60
2018-12-12T19:14:39.792Z,13.70
2018-12-12T19:16:46.781Z,11.20
2018-12-12T19:18:53.205Z,10.83
2018-12-12T19:21:00.211Z,10.53
2018-12-12T19:23:07.414Z,12.87
2018-12-12T19:25:25.129Z,9.80
2018-12-12T19:27:38.827Z,10.57
2018-12-12T19:29:45.028Z,10.27
2018-12-12T19:31:51.239Z,11.10
2018-12-12T19:33:57.413Z,11.17
2018-12-12T19:36:03.668Z,11.57
2018-12-12T19:38:17.491Z,12.93
2018-12-12T19:40:31.360Z,12.30
2018-12-12T19:42:37.602Z,12.23
2018-12-12T19:44:43.892Z,10.13
2018-12-12T19:46:50.639Z,13.50
2018-12-12T19:48:56.880Z,13.53
2018-12-12T19:51:03.222Z,13.10
2018-12-12T19:53:16.759Z,12.97
2018-12-12T19:55:30.844Z,11.50
2018-12-12T19:57:37.424Z,11.07
2018-12-12T19:59:43.955Z,10.97
2018-12-12T20:01:50.854Z,10.10
2018-12-12T20:03:57.364Z,11.03
2018-12-12T20:06:03.927Z,9.70
2018-12-12T20:08:10.268Z,10.97
2018-12-12T20:10:16.609Z,10.03
2018-12-12T20:12:23.336Z,9.30
2018-12-12T20:14:29.612Z,9.20
2018-12-12T20:16:35.904Z,9.80
2018-12-12T20:18:42.323Z,8.23
2018-12-12T20:20:48.947Z,9.20
2018-12-12T20:22:55.267Z,8.73
2018-12-12T20:25:02.823Z,8.20
2018-12-12T20:27:16.908Z,9.10
2018-12-12T20:29:30.849Z,8.70
2018-12-12T20:31:37.365Z,8.50
2018-12-12T20:33:43.893Z,8.50
2018-12-12T20:35:51.351Z,8.40
2018-12-12T20:37:58.350Z,8.27
2018-12-12T20:40:05.460Z,8.20
2018-12-12T20:42:19.608Z,7.10
2018-12-12T20:44:34.486Z,7.30
2018-12-12T20:46:41.873Z,6.80
2018-12-12T20:48:48.665Z,8.17
2018-12-12T20:50:55.493Z,8.27
2018-12-12T20:53:07.989Z,6.77
2018-12-12T20:55:17.520Z,6.93
2018-12-12T20:57:24.472Z,6.47
2018-12-12T20:59:32.109Z,6.33
2018-12-12T21:01:38.479Z,6.70
2018-12-12T21:03:44.943Z,5.80
2018-12-12T21:05:54.569Z,6.60
2018-12-12T21:07:59.887Z,6.70
2018-12-12T21:10:06.793Z,6.13
2018-12-12T21:12:12.960Z,5.77
2018-12-12T21:14:19.764Z,6.17
2018-12-12T21:16:26.697Z,4.90
2018-12-12T21:18:32.877Z,5.70
2018-12-12T21:20:39.991Z,5.60
2018-12-12T21:22:46.236Z,6.10
2018-12-12T21:24:52.458Z,5.93
2018-12-12T21:27:00.701Z,4.53
2018-12-12T21:29:06.988Z,5.90
2018-12-12T21:31:13.449Z,5.77
2018-12-12T21:33:20.757Z,5.77
2018-12-12T21:35:27.229Z,5.40
2018-12-12T21:37:33.813Z,5.70
2018-12-12T21:39:40.071Z,5.07
2018-12-12T21:41:48.743Z,5.53
2018-12-12T21:43:55.318Z,5.73
2018-12-12T21:46:03.243Z,5.80
2018-12-12T21:48:09.931Z,5.20
2018-12-12T21:50:17.516Z,5.50
2018-12-12T21:52:24.970Z,4.93
2018-12-12T21:54:31.393Z,5.40
2018-12-12T21:56:37.692Z,4.93
2018-12-12T21:58:44.809Z,5.30
2018-12-12T22:00:51.111Z,4.60
2018-12-12T22:02:57.344Z,4.27
2018-12-12T22:05:03.480Z,5.30
2018-12-12T22:07:10.051Z,5.00
2018-12-12T22:09:16.570Z,5.10
2018-12-12T22:11:22.945Z,5.00
2018-12-12T22:13:29.177Z,5.83
2018-12-12T22:15:36.137Z,5.40
2018-12-12T22:17:44.168Z,4.83
2018-12-12T22:19:52.154Z,6.00
2018-12-12T22:21:58.472Z,5.50
2018-12-12T22:24:06.032Z,4.90
2018-12-12T22:26:13.013Z,5.03
2018-12-12T22:28:20.000Z,5.33
2018-12-12T22:30:26.821Z,5.03
2018-12-12T22:32:33.764Z,4.80
2018-12-12T22:34:39.903Z,5.50
2018-12-12T22:36:47.933Z,6.53
2018-12-12T22:38:54.419Z,5.43
2018-12-12T22:41:00.847Z,5.10
2018-12-12T22:43:07.021Z,5.57
2018-12-12T22:45:23.896Z,5.40
2018-12-12T22:47:32.818Z,5.23
2018-12-12T22:49:41.375Z,4.90
2018-12-12T22:51:47.917Z,4.97
2018-12-12T22:53:54.284Z,5.43
2018-12-12T22:56:00.851Z,5.67
2018-12-12T22:58:07.132Z,5.73
2018-12-12T23:00:18.725Z,5.83
2018-12-12T23:02:27.863Z,5.63
2018-12-12T23:04:34.480Z,6.50
2018-12-12T23:06:40.745Z,6.47
2018-12-12T23:08:47.376Z,6.60
2018-12-12T23:10:54.540Z,6.57
2018-12-12T23:13:00.853Z,7.27
2018-12-12T23:15:07.876Z,6.47
2018-12-12T23:17:14.670Z,7.00
2018-12-12T23:19:21.586Z,7.50
2018-12-12T23:21:28.141Z,6.17
2018-12-12T23:23:34.287Z,6.80
2018-12-12T23:25:44.545Z,6.63
2018-12-12T23:27:50.752Z,6.33
2018-12-12T23:29:58.432Z,5.60
2018-12-12T23:32:05.288Z,5.30
2018-12-12T23:34:11.501Z,6.00
2018-12-12T23:36:19.096Z,5.90
2018-12-12T23:38:26.432Z,6.43
2018-12-12T23:40:33.393Z,6.17
2018-12-12T23:42:40.634Z,6.13
2018-12-12T23:44:46.928Z,6.50
2018-12-12T23:46:53.147Z,5.20
2018-12-12T23:49:00.578Z,5.83
2018-12-12T23:51:06.780Z,5.87
2018-12-12T23:53:13.954Z,5.50
2018-12-12T23:55:20.153Z,5.53
2018-12-12T23:57:26.234Z,6.40
2018-12-12T23:59:33.469Z,5.43
